createdAt,value
2023-10-23T00:00:09.962Z,15.65
2023-10-23T00:02:41.223Z,15.70
2023-10-23T00:05:11.968Z,15.74
2023-10-23T00:07:40.664Z,15.76
2023-10-23T00:10:09.560Z,15.80
2023-10-23T00:12:37.846Z,15.83
2023-10-23T00:15:06.766Z,15.79
2023-10-23T00:17:35.282Z,15.82
2023-10-23T00:20:06.186Z,15.75
2023-10-23T00:22:34.347Z,15.77
2023-10-23T00:25:02.889Z,15.77
2023-10-23T00:27:30.969Z,15.79
2023-10-23T00:30:02.889Z,15.80
2023-10-23T00:32:32.380Z,15.79
2023-10-23T00:35:01.356Z,15.81
2023-10-23T00:37:30.159Z,15.83
2023-10-23T00:39:58.094Z,15.85
2023-10-23T00:42:26.529Z,15.82
2023-10-23T00:44:54.922Z,15.82
2023-10-23T00:47:23.767Z,15.83
2023-10-23T00:49:52.314Z,15.83
2023-10-23T00:52:20.873Z,15.83
2023-10-23T00:54:49.730Z,15.85
2023-10-23T00:57:17.530Z,15.88
2023-10-23T00:59:46.038Z,15.85
2023-10-23T01:02:14.542Z,15.90
2023-10-23T01:04:43.097Z,15.93
2023-10-23T01:07:11.869Z,15.96
2023-10-23T01:09:40.471Z,15.99
2023-10-23T01:12:08.525Z,16.01
2023-10-23T01:14:36.983Z,16.04
2023-10-23T01:17:05.756Z,16.03
2023-10-23T01:19:33.997Z,16.01
2023-10-23T01:22:02.035Z,15.97
2023-10-23T01:24:32.263Z,15.95
2023-10-23T01:27:00.363Z,15.94
2023-10-23T01:29:28.676Z,15.99
2023-10-23T01:31:56.814Z,15.97
2023-10-23T01:34:24.558Z,15.99
2023-10-23T01:36:52.828Z,15.99
2023-10-23T01:39:21.172Z,15.98
2023-10-23T01:41:58.225Z,16.01
2023-10-23T01:44:31.820Z,16.01
2023-10-23T01:47:04.800Z,16.02
2023-10-23T01:49:32.909Z,16.03
2023-10-23T01:52:04.153Z,16.02
2023-10-23T01:54:35.036Z,16.06
2023-10-23T01:57:04.920Z,16.07
2023-10-23T01:59:33.448Z,16.06
2023-10-23T02:02:01.611Z,16.09
2023-10-23T02:04:30.392Z,16.10
2023-10-23T02:07:01.251Z,16.10
2023-10-23T02:09:29.916Z,16.13
2023-10-23T02:12:00.231Z,16.15
2023-10-23T02:14:28.654Z,16.16
2023-10-23T02:16:56.996Z,16.19
2023-10-23T02:19:26.178Z,16.21
2023-10-23T02:21:54.448Z,16.23
2023-10-23T02:24:23.194Z,16.26
2023-10-23T02:26:53.453Z,16.28
2023-10-23T02:29:22.395Z,16.28
2023-10-23T02:31:50.829Z,16.31
2023-10-23T02:34:19.115Z,16.32
2023-10-23T02:36:47.717Z,16.32
2023-10-23T02:39:16.038Z,16.32
2023-10-23T02:41:44.628Z,16.26
2023-10-23T02:44:12.899Z,16.30
2023-10-23T02:46:42.634Z,16.31
2023-10-23T02:49:33.473Z,16.30
2023-10-23T02:52:01.418Z,16.28
2023-10-23T02:54:30.956Z,16.25
2023-10-23T02:56:59.365Z,16.25
2023-10-23T02:59:27.608Z,16.22
2023-10-23T03:01:55.587Z,16.23
2023-10-23T03:04:23.632Z,16.22
2023-10-23T03:06:51.788Z,16.25
2023-10-23T03:09:19.795Z,16.25
2023-10-23T03:11:47.922Z,16.24
2023-10-23T03:14:16.353Z,16.26
2023-10-23T03:16:44.624Z,16.27
2023-10-23T03:19:12.892Z,16.24
2023-10-23T03:21:41.182Z,16.24
2023-10-23T03:24:09.984Z,16.26
2023-10-23T03:26:38.043Z,16.23
2023-10-23T03:29:06.413Z,16.20
2023-10-23T03:31:34.466Z,16.21
2023-10-23T03:34:03.164Z,16.20
2023-10-23T03:36:31.405Z,16.23
2023-10-23T03:38:59.849Z,16.23
2023-10-23T03:41:28.019Z,16.17
2023-10-23T03:43:56.210Z,16.23
2023-10-23T03:46:24.506Z,16.28
2023-10-23T03:48:53.735Z,16.32
2023-10-23T03:51:22.227Z,16.37
2023-10-23T03:53:50.308Z,16.39
2023-10-23T03:56:18.456Z,16.38
2023-10-23T03:58:46.704Z,16.38
2023-10-23T04:01:14.947Z,16.40
2023-10-23T04:03:42.947Z,16.42
2023-10-23T04:06:10.958Z,16.45
2023-10-23T04:08:39.099Z,16.49
2023-10-23T04:11:07.192Z,16.52
2023-10-23T04:13:36.447Z,16.53
2023-10-23T04:16:04.839Z,16.52
2023-10-23T04:18:33.119Z,16.54
2023-10-23T04:21:11.977Z,16.55
2023-10-23T04:23:41.244Z,16.54
2023-10-23T04:26:09.839Z,16.51
2023-10-23T04:28:38.665Z,16.50
2023-10-23T04:31:06.898Z,16.49
2023-10-23T04:33:34.822Z,16.47
2023-10-23T04:36:03.276Z,16.40
2023-10-23T04:38:33.120Z,16.44
2023-10-23T04:41:01.326Z,16.50
2023-10-23T04:43:29.686Z,16.59
2023-10-23T04:46:00.962Z,16.63
2023-10-23T04:48:29.394Z,16.67
2023-10-23T04:51:05.000Z,16.71
2023-10-23T04:53:33.257Z,16.70
2023-10-23T04:56:01.913Z,16.69
2023-10-23T04:58:31.364Z,16.68
2023-10-23T05:00:59.951Z,16.73
2023-10-23T05:03:28.227Z,16.79
2023-10-23T05:05:56.638Z,16.83
2023-10-23T05:08:24.793Z,16.84
2023-10-23T05:10:52.797Z,16.87
2023-10-23T05:13:21.077Z,16.92
2023-10-23T05:15:49.235Z,16.96
2023-10-23T05:18:17.416Z,17.00
2023-10-23T05:20:45.463Z,17.07
2023-10-23T05:23:13.251Z,17.06
2023-10-23T05:25:41.254Z,17.08
2023-10-23T05:28:09.173Z,17.03
2023-10-23T05:30:37.125Z,17.00
2023-10-23T05:33:05.044Z,17.05
2023-10-23T05:35:33.257Z,17.04
2023-10-23T05:38:01.132Z,17.12
2023-10-23T05:40:29.388Z,17.16
2023-10-23T05:42:57.687Z,17.21
2023-10-23T05:45:26.021Z,17.25
2023-10-23T05:47:54.222Z,17.30
2023-10-23T05:50:22.431Z,17.30
2023-10-23T05:52:50.501Z,17.37
2023-10-23T05:55:20.084Z,17.44
2023-10-23T05:57:48.453Z,17.53
2023-10-23T06:00:16.938Z,17.70
2023-10-23T06:02:45.065Z,17.77
2023-10-23T06:05:14.337Z,17.88
2023-10-23T06:07:42.876Z,17.99
2023-10-23T06:10:11.230Z,18.10
2023-10-23T06:12:39.319Z,18.29
2023-10-23T06:15:07.615Z,18.42
2023-10-23T06:17:35.732Z,18.68
2023-10-23T06:20:04.433Z,18.96
2023-10-23T06:22:32.719Z,19.05
2023-10-23T06:25:00.998Z,19.04
2023-10-23T06:27:28.808Z,19.13
2023-10-23T06:29:56.776Z,19.14
2023-10-23T06:32:27.448Z,19.33
2023-10-23T06:34:56.296Z,19.52
2023-10-23T06:37:24.584Z,19.73
2023-10-23T06:39:52.105Z,19.97
2023-10-23T06:42:20.027Z,20.23
2023-10-23T06:44:48.276Z,20.35
2023-10-23T06:47:17.287Z,20.56
2023-10-23T06:49:48.392Z,20.67
2023-10-23T06:52:16.476Z,20.65
2023-10-23T06:54:44.590Z,20.60
2023-10-23T06:57:12.714Z,20.47
2023-10-23T06:59:41.155Z,20.27
2023-10-23T07:02:10.623Z,20.17
2023-10-23T07:04:38.724Z,20.11
2023-10-23T07:07:17.874Z,20.07
2023-10-23T07:09:50.439Z,19.96
2023-10-23T07:12:18.326Z,19.99
2023-10-23T07:14:46.311Z,19.96
2023-10-23T07:17:14.279Z,19.91
2023-10-23T07:19:42.563Z,19.90
2023-10-23T07:22:10.341Z,19.88
2023-10-23T07:24:40.827Z,19.90
2023-10-23T07:27:13.340Z,19.91
2023-10-23T07:29:41.723Z,19.94
2023-10-23T07:32:10.125Z,19.96
2023-10-23T07:34:39.076Z,20.02
2023-10-23T07:37:07.365Z,20.04
2023-10-23T07:39:36.507Z,20.13
2023-10-23T07:42:04.857Z,20.24
2023-10-23T07:44:33.110Z,20.29
2023-10-23T07:47:01.308Z,20.34
2023-10-23T07:49:29.433Z,20.37
2023-10-23T07:51:57.561Z,20.45
2023-10-23T07:54:25.502Z,20.49
2023-10-23T07:56:57.199Z,20.53
2023-10-23T07:59:25.545Z,20.63
2023-10-23T08:01:54.346Z,20.76
2023-10-23T08:04:22.525Z,20.80
2023-10-23T08:06:50.869Z,20.82
2023-10-23T08:09:19.869Z,20.94
2023-10-23T08:11:47.590Z,20.93
2023-10-23T08:14:16.284Z,20.94
2023-10-23T08:16:44.589Z,21.00
2023-10-23T08:19:14.262Z,21.00
2023-10-23T08:21:42.436Z,21.08
2023-10-23T08:24:11.125Z,21.20
2023-10-23T08:26:40.736Z,21.22
2023-10-23T08:29:08.982Z,21.27
2023-10-23T08:31:40.477Z,21.33
2023-10-23T08:34:09.724Z,21.42
2023-10-23T08:36:38.518Z,21.47
2023-10-23T08:39:06.751Z,21.46
2023-10-23T08:41:37.139Z,21.61
2023-10-23T08:44:06.680Z,21.73
2023-10-23T08:46:35.562Z,21.82
2023-10-23T08:49:04.345Z,21.85
2023-10-23T08:51:33.169Z,21.88
2023-10-23T08:54:15.810Z,21.97
2023-10-23T08:56:45.446Z,22.05
2023-10-23T08:59:15.797Z,22.11
2023-10-23T09:01:44.352Z,22.20
2023-10-23T09:04:29.995Z,22.26
2023-10-23T09:07:00.887Z,22.33
2023-10-23T09:09:30.203Z,22.40
2023-10-23T09:11:59.236Z,22.45
2023-10-23T09:14:28.905Z,22.49
2023-10-23T09:16:58.143Z,22.52
2023-10-23T09:19:35.863Z,22.57
2023-10-23T09:22:05.598Z,22.69
2023-10-23T09:24:34.054Z,22.77
2023-10-23T09:27:01.985Z,22.89
2023-10-23T09:29:30.546Z,22.96
2023-10-23T09:32:00.481Z,23.04
2023-10-23T09:34:30.626Z,23.07
2023-10-23T09:36:59.175Z,23.13
2023-10-23T09:39:27.534Z,23.18
2023-10-23T09:41:55.157Z,23.27
2023-10-23T09:44:25.946Z,23.36
2023-10-23T09:46:55.673Z,23.39
2023-10-23T09:49:28.411Z,23.49
2023-10-23T09:51:59.408Z,23.54
2023-10-23T09:54:27.357Z,23.53
2023-10-23T09:56:55.791Z,23.56
2023-10-23T09:59:35.870Z,23.67
2023-10-23T10:02:07.720Z,23.71
2023-10-23T10:04:45.015Z,23.81
2023-10-23T10:07:18.582Z,23.98
2023-10-23T10:09:47.052Z,24.07
2023-10-23T10:12:15.371Z,24.18
2023-10-23T10:14:44.414Z,24.18
2023-10-23T10:17:16.233Z,24.27
2023-10-23T10:19:44.667Z,24.35
2023-10-23T10:22:13.219Z,24.40
2023-10-23T10:24:41.246Z,24.44
2023-10-23T10:27:10.127Z,24.52
2023-10-23T10:29:38.452Z,24.56
2023-10-23T10:32:13.513Z,24.62
2023-10-23T10:34:55.788Z,24.63
2023-10-23T10:37:31.880Z,24.68
2023-10-23T10:40:00.141Z,24.72
2023-10-23T10:42:30.948Z,24.76
2023-10-23T10:45:01.355Z,24.81
2023-10-23T10:47:53.997Z,24.82
2023-10-23T10:50:42.623Z,24.81
2023-10-23T10:53:15.418Z,24.82
2023-10-23T10:55:46.636Z,24.80
2023-10-23T10:58:14.769Z,24.82
2023-10-23T11:00:43.123Z,24.86
2023-10-23T11:03:11.561Z,24.91
2023-10-23T11:05:46.082Z,24.95
2023-10-23T11:08:14.594Z,24.92
2023-10-23T11:10:43.234Z,24.91
2023-10-23T11:13:18.017Z,24.82
2023-10-23T11:15:47.460Z,24.94
2023-10-23T11:18:18.278Z,25.02
2023-10-23T11:20:46.625Z,24.99
2023-10-23T11:23:18.236Z,24.97
2023-10-23T11:25:56.010Z,25.02
2023-10-23T11:28:25.075Z,24.92
2023-10-23T11:30:58.034Z,24.80
2023-10-23T11:33:26.137Z,24.63
2023-10-23T11:35:55.006Z,24.54
2023-10-23T11:38:25.621Z,24.48
2023-10-23T11:40:56.378Z,24.59
2023-10-23T11:43:24.655Z,24.60
2023-10-23T11:45:52.962Z,24.58
2023-10-23T11:48:20.907Z,24.54
2023-10-23T11:50:49.356Z,24.56
2023-10-23T11:53:18.410Z,24.57
2023-10-23T11:55:47.216Z,24.53
2023-10-23T11:58:15.517Z,24.50
2023-10-23T12:00:43.832Z,24.48
2023-10-23T12:03:11.933Z,24.39
2023-10-23T12:05:41.234Z,24.43
2023-10-23T12:08:17.128Z,24.50
2023-10-23T12:10:45.507Z,24.54
2023-10-23T12:13:13.238Z,24.63
2023-10-23T12:15:41.333Z,24.64
2023-10-23T12:18:09.212Z,24.59
2023-10-23T12:20:37.422Z,24.52
2023-10-23T12:23:05.708Z,24.52
2023-10-23T12:25:34.133Z,24.49
2023-10-23T12:28:02.463Z,24.48
2023-10-23T12:30:30.939Z,24.45
2023-10-23T12:33:17.523Z,24.31
2023-10-23T12:35:51.022Z,24.30
2023-10-23T12:38:19.549Z,24.26
2023-10-23T12:40:50.130Z,24.24
2023-10-23T12:43:18.396Z,24.21
2023-10-23T12:45:48.200Z,24.14
2023-10-23T12:48:16.554Z,24.04
2023-10-23T12:50:45.066Z,23.96
2023-10-23T12:53:13.609Z,23.81
2023-10-23T12:55:42.974Z,23.71
2023-10-23T12:58:11.396Z,23.64
2023-10-23T13:00:42.715Z,23.63
2023-10-23T13:03:11.003Z,23.62
2023-10-23T13:05:40.149Z,23.61
2023-10-23T13:08:08.972Z,23.59
2023-10-23T13:10:36.993Z,23.63
2023-10-23T13:13:05.218Z,23.55
2023-10-23T13:15:33.313Z,23.50
2023-10-23T13:18:04.009Z,23.41
2023-10-23T13:21:28.364Z,23.40
2023-10-23T13:23:23.452Z,23.36
2023-10-23T13:26:05.971Z,23.33
2023-10-23T13:28:41.046Z,23.23
2023-10-23T13:31:09.520Z,23.09
2023-10-23T13:33:38.485Z,23.01
2023-10-23T13:36:10.322Z,22.93
2023-10-23T13:38:39.237Z,22.82
2023-10-23T13:41:07.586Z,22.77
2023-10-23T13:43:35.689Z,22.66
2023-10-23T13:46:06.960Z,22.57
2023-10-23T13:48:35.298Z,22.44
2023-10-23T13:51:03.761Z,22.33
2023-10-23T13:53:33.067Z,22.24
2023-10-23T13:56:01.260Z,22.16
2023-10-23T13:58:48.221Z,22.06
2023-10-23T14:01:19.796Z,21.97
2023-10-23T14:03:48.532Z,21.95
2023-10-23T14:06:19.373Z,21.90
2023-10-23T14:09:42.057Z,21.84
2023-10-23T14:11:59.121Z,21.68
2023-10-23T14:14:25.358Z,21.51
2023-10-23T14:16:56.322Z,21.33
2023-10-23T14:19:38.103Z,21.20
2023-10-23T14:22:11.378Z,21.02
2023-10-23T14:24:40.050Z,20.95
2023-10-23T14:27:08.577Z,20.86
2023-10-23T14:29:37.182Z,20.76
2023-10-23T14:32:05.765Z,20.67
2023-10-23T14:34:33.894Z,20.55
2023-10-23T14:37:02.174Z,20.47
2023-10-23T14:39:31.170Z,20.40
2023-10-23T14:41:59.077Z,20.28
2023-10-23T14:44:26.874Z,20.22
2023-10-23T14:46:55.195Z,20.16
2023-10-23T14:49:23.282Z,20.09
2023-10-23T14:51:52.685Z,20.04
2023-10-23T14:54:21.222Z,19.96
2023-10-23T14:56:51.384Z,19.96
2023-10-23T14:59:19.523Z,19.91
2023-10-23T15:01:47.628Z,19.83
2023-10-23T15:04:32.636Z,19.81
2023-10-23T15:07:01.864Z,19.79
2023-10-23T15:09:30.572Z,19.81
2023-10-23T15:11:58.765Z,19.84
2023-10-23T15:14:26.729Z,19.85
2023-10-23T15:16:55.812Z,19.87
2023-10-23T15:19:23.891Z,19.85
2023-10-23T15:21:52.070Z,19.82
2023-10-23T15:24:21.380Z,19.77
2023-10-23T15:26:49.758Z,19.73
2023-10-23T15:29:17.857Z,19.72
2023-10-23T15:31:46.295Z,19.67
2023-10-23T15:34:15.265Z,19.65
2023-10-23T15:36:43.546Z,19.62
2023-10-23T15:39:11.668Z,19.58
2023-10-23T15:41:39.819Z,19.56
2023-10-23T15:44:07.679Z,19.45
2023-10-23T15:46:38.103Z,19.38
2023-10-23T15:49:06.732Z,19.33
2023-10-23T15:51:35.049Z,19.30
2023-10-23T15:54:03.106Z,19.25
2023-10-23T15:56:31.320Z,19.18
2023-10-23T15:58:59.940Z,19.14
2023-10-23T16:01:29.352Z,19.08
2023-10-23T16:03:57.338Z,19.06
2023-10-23T16:06:25.083Z,19.03
2023-10-23T16:08:53.144Z,19.00
2023-10-23T16:11:23.340Z,18.97
2023-10-23T16:13:51.595Z,18.90
2023-10-23T16:16:19.682Z,18.86
2023-10-23T16:18:47.578Z,18.82
2023-10-23T16:21:16.754Z,18.84
2023-10-23T16:23:45.494Z,18.83
2023-10-23T16:26:13.701Z,18.78
2023-10-23T16:28:42.515Z,18.77
2023-10-23T16:31:15.453Z,18.68
2023-10-23T16:33:44.018Z,18.61
2023-10-23T16:36:12.365Z,18.65
2023-10-23T16:38:40.918Z,18.72
2023-10-23T16:41:09.045Z,18.69
2023-10-23T16:43:41.633Z,18.66
2023-10-23T16:46:13.208Z,18.61
2023-10-23T16:48:43.021Z,18.61
2023-10-23T16:51:11.331Z,18.60
2023-10-23T16:53:42.796Z,18.58
2023-10-23T16:56:10.664Z,18.51
2023-10-23T16:58:38.995Z,18.48
2023-10-23T17:01:08.079Z,18.48
2023-10-23T17:03:39.242Z,18.44
2023-10-23T17:06:10.787Z,18.43
2023-10-23T17:08:39.218Z,18.43
2023-10-23T17:11:08.502Z,18.40
2023-10-23T17:13:37.189Z,18.38
2023-10-23T17:16:05.552Z,18.41
2023-10-23T17:18:33.907Z,18.27
2023-10-23T17:21:04.300Z,18.24
2023-10-23T17:23:33.015Z,18.24
2023-10-23T17:26:02.164Z,18.28
2023-10-23T17:28:32.098Z,18.24
2023-10-23T17:31:00.826Z,18.19
2023-10-23T17:33:32.165Z,18.15
2023-10-23T17:36:01.135Z,18.23
2023-10-23T17:38:29.749Z,18.16
2023-10-23T17:40:58.182Z,18.08
2023-10-23T17:43:26.573Z,18.05
2023-10-23T17:45:55.392Z,18.03
2023-10-23T17:48:23.297Z,17.94
2023-10-23T17:50:52.437Z,17.91
2023-10-23T17:53:20.676Z,17.90
2023-10-23T17:55:48.578Z,17.84
2023-10-23T17:58:16.859Z,17.93
2023-10-23T18:00:45.950Z,17.85
2023-10-23T18:03:15.461Z,17.78
2023-10-23T18:05:43.805Z,17.79
2023-10-23T18:08:12.444Z,17.81
2023-10-23T18:10:41.576Z,17.82
2023-10-23T18:13:10.061Z,17.83
2023-10-23T18:15:38.338Z,17.82
2023-10-23T18:18:06.397Z,17.81
2023-10-23T18:20:34.693Z,17.80
2023-10-23T18:23:02.891Z,17.78
2023-10-23T18:25:31.844Z,17.76
2023-10-23T18:28:00.635Z,17.75
2023-10-23T18:30:32.009Z,17.71
2023-10-23T18:33:00.191Z,17.75
2023-10-23T18:35:28.504Z,17.76
2023-10-23T18:37:57.560Z,17.80
2023-10-23T18:40:26.285Z,17.80
2023-10-23T18:42:58.635Z,17.81
2023-10-23T18:45:26.996Z,17.83
2023-10-23T18:47:55.288Z,17.82
2023-10-23T18:50:23.748Z,17.80
2023-10-23T18:52:52.172Z,17.81
2023-10-23T18:55:21.324Z,17.73
2023-10-23T18:57:49.645Z,17.79
2023-10-23T19:00:18.307Z,17.74
2023-10-23T19:02:46.528Z,17.74
2023-10-23T19:05:15.056Z,17.68
2023-10-23T19:07:43.511Z,17.68
2023-10-23T19:10:11.848Z,17.69
2023-10-23T19:12:43.098Z,17.65
2023-10-23T19:15:11.530Z,17.61
2023-10-23T19:17:41.379Z,17.57
2023-10-23T19:20:11.052Z,17.57
2023-10-23T19:22:39.994Z,17.51
2023-10-23T19:25:11.020Z,17.45
2023-10-23T19:27:39.103Z,17.37
2023-10-23T19:30:12.376Z,17.26
2023-10-23T19:32:45.858Z,17.19
2023-10-23T19:35:16.815Z,17.13
2023-10-23T19:37:45.268Z,17.07
2023-10-23T19:40:14.071Z,17.05
2023-10-23T19:42:42.965Z,17.09
2023-10-23T19:45:11.348Z,17.15
2023-10-23T19:47:40.059Z,17.13
2023-10-23T19:50:10.684Z,17.16
2023-10-23T19:52:39.700Z,17.19
2023-10-23T19:55:45.824Z,17.25
2023-10-23T19:57:58.144Z,17.33
2023-10-23T20:00:26.549Z,17.34
2023-10-23T20:02:56.110Z,17.37
2023-10-23T20:05:28.786Z,17.36
2023-10-23T20:07:59.753Z,17.28
2023-10-23T20:10:32.108Z,17.17
2023-10-23T20:13:00.740Z,17.09
2023-10-23T20:15:30.714Z,16.91
2023-10-23T20:17:59.299Z,16.89
2023-10-23T20:20:27.845Z,16.84
2023-10-23T20:22:55.555Z,16.83
2023-10-23T20:25:23.794Z,16.77
2023-10-23T20:27:51.830Z,16.77
2023-10-23T20:30:20.055Z,16.82
2023-10-23T20:32:48.913Z,16.82
2023-10-23T20:35:17.224Z,16.81
2023-10-23T20:37:46.098Z,16.86
2023-10-23T20:40:14.563Z,16.82
2023-10-23T20:42:44.421Z,16.69
2023-10-23T20:45:14.704Z,16.64
2023-10-23T20:47:43.048Z,16.59
2023-10-23T20:50:12.006Z,16.50
2023-10-23T20:52:40.188Z,16.48
2023-10-23T20:55:08.868Z,16.41
2023-10-23T20:57:37.127Z,16.38
2023-10-23T21:00:07.933Z,16.31
2023-10-23T21:02:37.659Z,16.21
2023-10-23T21:05:06.893Z,16.24
2023-10-23T21:07:36.017Z,16.19
2023-10-23T21:10:04.394Z,16.12
2023-10-23T21:12:33.028Z,16.05
2023-10-23T21:15:01.060Z,16.03
2023-10-23T21:17:29.333Z,16.03
2023-10-23T21:19:57.701Z,16.03
2023-10-23T21:22:25.637Z,15.99
2023-10-23T21:24:54.110Z,15.99
2023-10-23T21:27:22.754Z,15.93
2023-10-23T21:29:50.943Z,15.86
2023-10-23T21:32:19.631Z,15.78
2023-10-23T21:34:47.871Z,15.69
2023-10-23T21:37:16.244Z,15.68
2023-10-23T21:39:44.565Z,15.67
2023-10-23T21:42:12.617Z,15.61
2023-10-23T21:44:41.282Z,15.57
2023-10-23T21:47:09.785Z,15.51
2023-10-23T21:49:38.276Z,15.41
2023-10-23T21:52:06.912Z,15.35
2023-10-23T21:54:35.343Z,15.36
2023-10-23T21:57:20.232Z,15.28
2023-10-23T21:59:51.575Z,15.22
2023-10-23T22:02:19.874Z,15.22
2023-10-23T22:04:48.495Z,15.24
2023-10-23T22:07:16.711Z,15.16
2023-10-23T22:09:44.986Z,15.15
2023-10-23T22:12:13.733Z,15.16
2023-10-23T22:14:42.669Z,15.09
2023-10-23T22:17:11.470Z,15.09
2023-10-23T22:19:39.656Z,15.13
2023-10-23T22:22:07.683Z,15.18
2023-10-23T22:24:36.033Z,15.22
2023-10-23T22:27:04.321Z,15.25
2023-10-23T22:29:32.522Z,15.27
2023-10-23T22:32:00.397Z,15.23
2023-10-23T22:34:29.162Z,15.24
2023-10-23T22:37:55.375Z,15.20
2023-10-23T22:39:45.602Z,15.13
2023-10-23T22:42:13.676Z,15.14
2023-10-23T22:44:42.476Z,15.17
2023-10-23T22:47:10.765Z,15.18
2023-10-23T22:49:38.990Z,15.22
2023-10-23T22:52:07.355Z,15.30
2023-10-23T22:54:35.854Z,15.33
2023-10-23T22:57:06.204Z,15.32
2023-10-23T22:59:34.969Z,15.30
2023-10-23T23:02:03.421Z,15.27
2023-10-23T23:04:31.994Z,15.34
2023-10-23T23:07:01.021Z,15.32
2023-10-23T23:09:30.320Z,15.30
2023-10-23T23:11:58.800Z,15.34
2023-10-23T23:14:26.773Z,15.33
2023-10-23T23:16:59.979Z,15.32
2023-10-23T23:19:30.881Z,15.32
2023-10-23T23:22:09.953Z,15.27
2023-10-23T23:24:41.003Z,15.31
2023-10-23T23:27:08.889Z,15.32
2023-10-23T23:29:37.011Z,15.30
2023-10-23T23:32:08.406Z,15.23
2023-10-23T23:34:37.924Z,15.27
2023-10-23T23:37:06.318Z,15.27
2023-10-23T23:39:34.361Z,15.27
2023-10-23T23:42:03.106Z,15.20
2023-10-23T23:44:31.344Z,15.21
2023-10-23T23:46:59.489Z,15.22
2023-10-23T23:49:29.039Z,15.21
2023-10-23T23:51:57.362Z,15.22
2023-10-23T23:54:25.563Z,15.18
2023-10-23T23:56:53.768Z,15.17
2023-10-23T23:59:21.898Z,15.16
